createdAt,value
2019-05-26T00:00:09.472Z,6.93
2019-05-26T00:02:38.833Z,6.00
2019-05-26T00:05:08.748Z,6.20
2019-05-26T00:07:38.264Z,7.03
2019-05-26T00:10:08.526Z,6.87
2019-05-26T00:12:38.113Z,8.70
2019-05-26T00:15:08.602Z,8.17
2019-05-26T00:17:38.007Z,8.20
2019-05-26T00:20:08.734Z,7.03
2019-05-26T00:22:38.180Z,6.50
2019-05-26T00:25:08.015Z,9.37
2019-05-26T00:27:37.457Z,8.70
2019-05-26T00:30:07.064Z,8.00
2019-05-26T00:32:36.460Z,6.00
2019-05-26T00:35:06.274Z,5.70
2019-05-26T00:37:48.428Z,5.43
2019-05-26T00:40:07.116Z,5.27
2019-05-26T00:42:36.594Z,5.23
2019-05-26T00:45:06.077Z,5.67
2019-05-26T00:47:35.529Z,5.23
2019-05-26T00:50:05.730Z,5.50
2019-05-26T00:52:35.270Z,5.20
2019-05-26T00:55:04.878Z,5.57
2019-05-26T00:57:34.299Z,6.00
2019-05-26T01:00:03.835Z,5.03
2019-05-26T01:02:33.288Z,6.27
2019-05-26T01:05:02.694Z,5.73
2019-05-26T01:07:32.101Z,5.40
2019-05-26T01:10:01.540Z,5.80
2019-05-26T01:12:31.017Z,5.27
2019-05-26T01:15:00.415Z,6.03
2019-05-26T01:17:30.117Z,6.10
2019-05-26T01:19:59.521Z,5.80
2019-05-26T01:22:28.991Z,7.67
2019-05-26T01:24:58.358Z,6.13
2019-05-26T01:27:27.740Z,6.73
2019-05-26T01:29:57.152Z,6.30
2019-05-26T01:34:56.083Z,5.50
2019-05-26T01:37:25.679Z,6.23
2019-05-26T01:39:55.157Z,6.23
2019-05-26T01:42:24.679Z,6.80
2019-05-26T01:44:54.122Z,6.87
2019-05-26T01:47:23.605Z,5.97
2019-05-26T01:49:53.093Z,6.40
2019-05-26T01:52:22.549Z,7.00
2019-05-26T01:54:51.999Z,7.60
2019-05-26T01:57:21.570Z,6.13
2019-05-26T01:59:51.011Z,6.60
2019-05-26T02:02:20.533Z,6.40
2019-05-26T02:04:50.038Z,6.37
2019-05-26T02:07:19.480Z,6.70
2019-05-26T02:09:48.976Z,6.97
2019-05-26T02:12:18.513Z,6.93
2019-05-26T02:14:47.916Z,7.00
2019-05-26T02:17:17.386Z,7.07
2019-05-26T02:19:46.836Z,6.70
2019-05-26T02:22:16.383Z,7.70
2019-05-26T02:24:45.855Z,7.47
2019-05-26T02:27:15.266Z,7.63
2019-05-26T02:29:44.718Z,8.17
2019-05-26T02:32:14.158Z,8.80
2019-05-26T02:34:43.610Z,10.17
2019-05-26T02:37:13.090Z,9.50
2019-05-26T02:39:42.633Z,8.80
2019-05-26T02:42:12.181Z,9.23
2019-05-26T02:44:41.650Z,9.67
2019-05-26T02:47:11.169Z,10.70
2019-05-26T02:49:40.673Z,10.03
2019-05-26T02:52:10.209Z,10.57
2019-05-26T02:54:39.642Z,11.57
2019-05-26T02:57:09.121Z,10.60
2019-05-26T02:59:38.648Z,10.70
2019-05-26T03:02:08.202Z,10.20
2019-05-26T03:04:37.676Z,11.20
2019-05-26T03:07:07.231Z,11.20
2019-05-26T03:09:41.792Z,11.13
2019-05-26T03:12:11.317Z,12.03
2019-05-26T03:14:43.116Z,12.07
2019-05-26T03:17:12.560Z,13.13
2019-05-26T03:19:42.034Z,12.20
2019-05-26T03:22:13.036Z,12.57
2019-05-26T03:24:44.063Z,12.57
2019-05-26T03:27:13.520Z,13.63
2019-05-26T03:29:43.047Z,14.03
2019-05-26T03:32:12.520Z,13.27
2019-05-26T03:34:41.961Z,13.13
2019-05-26T03:37:11.457Z,11.90
2019-05-26T03:39:45.503Z,12.80
2019-05-26T03:42:12.156Z,11.57
2019-05-26T03:44:41.701Z,12.07
2019-05-26T03:47:15.704Z,12.37
2019-05-26T03:49:42.404Z,11.83
2019-05-26T03:52:11.962Z,12.57
2019-05-26T03:54:41.422Z,14.00
2019-05-26T03:57:10.857Z,16.17
2019-05-26T03:59:40.294Z,15.33
2019-05-26T04:02:09.772Z,15.30
2019-05-26T04:04:39.261Z,15.47
2019-05-26T04:07:08.776Z,16.47
2019-05-26T04:09:38.317Z,17.43
2019-05-26T04:12:07.825Z,17.60
2019-05-26T04:14:37.376Z,19.50
2019-05-26T04:17:06.904Z,19.00
2019-05-26T04:19:36.429Z,18.77
2019-05-26T04:22:05.953Z,17.33
2019-05-26T04:24:35.525Z,19.17
2019-05-26T04:27:05.035Z,18.10
2019-05-26T04:29:34.566Z,18.33
2019-05-26T04:32:04.410Z,18.30
2019-05-26T04:34:33.877Z,20.50
2019-05-26T04:37:03.417Z,20.03
2019-05-26T04:39:32.904Z,20.93
2019-05-26T04:42:02.381Z,20.70
2019-05-26T04:44:31.913Z,20.50
2019-05-26T04:47:01.394Z,19.83
2019-05-26T04:49:30.823Z,20.50
2019-05-26T04:52:00.579Z,20.70
2019-05-26T04:54:30.124Z,21.57
2019-05-26T04:56:59.565Z,20.97
2019-05-26T04:59:29.104Z,20.73
2019-05-26T05:01:58.550Z,20.53
2019-05-26T05:04:28.105Z,22.77
2019-05-26T05:06:57.668Z,22.00
2019-05-26T05:09:27.157Z,22.97
2019-05-26T05:11:56.647Z,22.47
2019-05-26T05:14:26.178Z,23.37
2019-05-26T05:16:55.695Z,21.97
2019-05-26T05:19:25.188Z,22.20
2019-05-26T05:21:54.715Z,22.43
2019-05-26T05:24:24.163Z,23.00
2019-05-26T05:26:53.662Z,20.87
2019-05-26T05:29:23.210Z,25.13
2019-05-26T05:31:52.753Z,21.00
2019-05-26T05:34:22.217Z,21.67
2019-05-26T05:36:51.683Z,22.80
2019-05-26T05:39:21.127Z,22.00
2019-05-26T05:41:50.579Z,22.17
2019-05-26T05:44:20.054Z,20.57
2019-05-26T05:46:49.593Z,21.20
2019-05-26T05:49:19.053Z,19.97
2019-05-26T05:51:48.525Z,20.60
2019-05-26T05:54:17.951Z,19.40
2019-05-26T05:56:47.413Z,18.33
2019-05-26T05:59:16.950Z,19.83
2019-05-26T06:01:46.354Z,18.87
2019-05-26T06:04:15.833Z,17.60
2019-05-26T06:06:45.545Z,17.23
2019-05-26T06:09:15.166Z,19.27
2019-05-26T06:11:44.564Z,17.90
2019-05-26T06:14:14.099Z,16.63
2019-05-26T06:16:43.550Z,17.47
2019-05-26T06:19:13.069Z,17.40
2019-05-26T06:21:42.478Z,17.53
2019-05-26T06:24:11.969Z,17.47
2019-05-26T06:26:41.424Z,17.67
2019-05-26T06:29:10.867Z,16.63
2019-05-26T06:31:40.253Z,16.53
2019-05-26T06:34:09.735Z,15.33
2019-05-26T06:36:39.245Z,15.47
2019-05-26T06:39:09.101Z,16.00
2019-05-26T06:41:38.551Z,16.27
2019-05-26T06:44:08.047Z,16.10
2019-05-26T06:46:37.481Z,17.00
2019-05-26T06:49:06.931Z,16.77
2019-05-26T06:51:36.382Z,17.20
2019-05-26T06:54:05.862Z,15.93
2019-05-26T06:56:38.347Z,15.43
2019-05-26T06:59:07.852Z,17.60
2019-05-26T07:01:37.378Z,14.90
2019-05-26T07:04:07.011Z,13.77
2019-05-26T07:06:36.476Z,12.93
2019-05-26T07:09:07.134Z,13.23
2019-05-26T07:11:50.504Z,12.70
2019-05-26T07:14:07.894Z,12.17
2019-05-26T07:16:38.892Z,12.00
2019-05-26T07:19:08.479Z,12.03
2019-05-26T07:21:37.981Z,11.57
2019-05-26T07:24:07.477Z,10.70
2019-05-26T07:26:36.913Z,13.20
2019-05-26T07:29:06.388Z,12.07
2019-05-26T07:31:35.762Z,12.07
2019-05-26T07:34:05.297Z,10.10
2019-05-26T07:36:34.700Z,11.47
2019-05-26T07:39:06.133Z,9.97
2019-05-26T07:41:35.673Z,10.00
2019-05-26T07:44:05.388Z,10.50
2019-05-26T07:46:37.608Z,10.73
2019-05-26T07:49:07.063Z,8.63
2019-05-26T07:51:42.003Z,8.67
2019-05-26T07:54:24.649Z,8.10
2019-05-26T07:56:42.950Z,8.43
2019-05-26T07:59:12.537Z,10.57
2019-05-26T08:01:42.095Z,7.97
2019-05-26T08:04:11.709Z,9.47
2019-05-26T08:06:41.344Z,8.43
2019-05-26T08:09:10.951Z,8.97
2019-05-26T08:11:40.613Z,9.60
2019-05-26T08:14:10.220Z,8.43
2019-05-26T08:16:39.762Z,8.07
2019-05-26T08:19:09.447Z,8.27
2019-05-26T08:21:39.249Z,8.03
2019-05-26T08:24:08.956Z,8.40
2019-05-26T08:26:38.788Z,8.50
2019-05-26T08:29:08.376Z,7.53
2019-05-26T08:31:38.041Z,7.77
2019-05-26T08:34:07.750Z,8.23
2019-05-26T08:36:37.795Z,7.90
2019-05-26T08:39:08.746Z,8.73
2019-05-26T08:41:38.801Z,8.20
2019-05-26T08:44:08.659Z,7.97
2019-05-26T08:46:38.254Z,8.40
2019-05-26T08:49:08.103Z,8.43
2019-05-26T08:51:38.086Z,7.43
2019-05-26T08:54:07.808Z,8.23
2019-05-26T08:56:37.676Z,7.57
2019-05-26T08:59:07.400Z,8.10
2019-05-26T09:01:37.189Z,9.60
2019-05-26T09:04:06.857Z,8.33
2019-05-26T09:06:36.489Z,7.63
2019-05-26T09:09:08.094Z,8.00
2019-05-26T09:11:37.937Z,7.70
2019-05-26T09:14:07.615Z,7.13
2019-05-26T09:16:37.262Z,7.03
2019-05-26T09:19:06.963Z,6.53
2019-05-26T09:21:36.841Z,7.33
2019-05-26T09:24:06.521Z,5.90
2019-05-26T09:26:36.288Z,6.30
2019-05-26T09:29:06.207Z,6.60
2019-05-26T09:31:35.927Z,5.47
2019-05-26T09:34:05.638Z,7.73
2019-05-26T09:36:35.223Z,5.73
2019-05-26T09:39:07.388Z,5.50
2019-05-26T09:41:36.995Z,5.00
2019-05-26T09:44:06.791Z,5.47
2019-05-26T09:46:36.413Z,5.03
2019-05-26T09:49:06.038Z,5.07
2019-05-26T09:51:35.705Z,5.73
2019-05-26T09:54:05.391Z,4.23
2019-05-26T09:56:35.013Z,3.70
2019-05-26T09:59:04.731Z,3.90
2019-05-26T10:01:34.427Z,4.43
2019-05-26T10:04:04.043Z,3.73
2019-05-26T10:06:33.784Z,3.90
2019-05-26T10:09:04.825Z,4.17
2019-05-26T10:11:34.364Z,3.00
2019-05-26T10:14:04.090Z,3.97
2019-05-26T10:16:33.706Z,2.67
2019-05-26T10:19:03.332Z,3.20
2019-05-26T10:21:32.913Z,3.10
2019-05-26T10:24:02.577Z,5.67
2019-05-26T10:26:32.150Z,3.43
2019-05-26T10:29:01.778Z,2.73
2019-05-26T10:31:31.435Z,3.70
2019-05-26T10:34:01.231Z,4.73
2019-05-26T10:36:30.960Z,3.60
2019-05-26T10:39:00.680Z,5.53
2019-05-26T10:41:30.284Z,3.50
2019-05-26T10:43:59.912Z,3.83
2019-05-26T10:46:29.527Z,4.17
2019-05-26T10:49:00.801Z,3.20
2019-05-26T10:51:30.507Z,3.30
2019-05-26T10:54:00.286Z,3.43
2019-05-26T10:56:30.214Z,3.30
2019-05-26T10:59:01.286Z,2.63
2019-05-26T11:01:30.954Z,3.47
2019-05-26T11:04:00.696Z,4.60
2019-05-26T11:06:30.371Z,2.97
2019-05-26T11:09:00.020Z,3.13
2019-05-26T11:11:29.586Z,4.10
2019-05-26T11:14:03.013Z,3.30
2019-05-26T11:16:30.685Z,3.00
2019-05-26T11:19:00.312Z,3.33
2019-05-26T11:21:30.032Z,4.97
2019-05-26T11:23:59.836Z,3.13
2019-05-26T11:26:29.453Z,3.50
2019-05-26T11:28:59.045Z,3.87
2019-05-26T11:31:28.705Z,3.53
2019-05-26T11:33:58.316Z,4.20
2019-05-26T11:36:27.886Z,2.93
2019-05-26T11:38:57.606Z,4.07
2019-05-26T11:41:27.139Z,3.00
2019-05-26T11:43:56.843Z,2.60
2019-05-26T11:46:26.508Z,3.90
2019-05-26T11:48:56.129Z,2.60
2019-05-26T11:51:25.767Z,3.17
2019-05-26T11:53:55.464Z,2.50
2019-05-26T11:56:25.040Z,2.87
2019-05-26T11:58:54.627Z,2.60
2019-05-26T12:01:24.250Z,3.30
2019-05-26T12:03:53.820Z,3.07
2019-05-26T12:06:23.411Z,2.83
2019-05-26T12:08:52.955Z,2.30
2019-05-26T12:11:22.598Z,3.20
2019-05-26T12:13:52.338Z,3.90
2019-05-26T12:16:21.900Z,4.13
2019-05-26T12:18:51.521Z,2.50
2019-05-26T12:21:21.077Z,3.27
2019-05-26T12:23:54.721Z,3.13
2019-05-26T12:26:22.056Z,3.07
2019-05-26T12:28:51.605Z,2.37
2019-05-26T12:31:21.273Z,2.10
2019-05-26T12:33:50.940Z,4.00
2019-05-26T12:36:20.490Z,3.10
2019-05-26T12:38:52.826Z,2.70
2019-05-26T12:41:22.752Z,4.70
2019-05-26T12:43:52.373Z,2.40
2019-05-26T12:46:21.926Z,2.00
2019-05-26T12:48:51.598Z,2.47
2019-05-26T12:51:21.221Z,3.30
2019-05-26T12:53:50.968Z,4.17
2019-05-26T12:56:21.139Z,2.67
2019-05-26T12:58:50.790Z,2.60
2019-05-26T13:01:20.452Z,2.90
2019-05-26T13:03:49.990Z,3.60
2019-05-26T13:06:19.603Z,3.90
2019-05-26T13:08:49.137Z,2.27
2019-05-26T13:11:18.750Z,2.60
2019-05-26T13:13:49.893Z,3.07
2019-05-26T13:16:19.567Z,2.60
2019-05-26T13:18:49.292Z,3.83
2019-05-26T13:21:18.949Z,3.40
2019-05-26T13:23:48.624Z,2.50
2019-05-26T13:26:18.277Z,3.30
2019-05-26T13:28:48.005Z,3.60
2019-05-26T13:31:17.733Z,3.27
2019-05-26T13:33:47.369Z,2.47
2019-05-26T13:36:17.027Z,2.53
2019-05-26T13:38:46.729Z,2.80
2019-05-26T13:41:16.505Z,2.47
2019-05-26T13:43:46.096Z,2.23
2019-05-26T13:46:15.785Z,2.30
2019-05-26T13:48:45.394Z,3.03
2019-05-26T13:51:15.051Z,3.33
2019-05-26T13:53:44.659Z,3.70
2019-05-26T13:56:14.301Z,3.10
2019-05-26T13:58:43.870Z,4.10
2019-05-26T14:01:13.483Z,2.33
2019-05-26T14:03:43.057Z,2.27
2019-05-26T14:06:12.584Z,2.40
2019-05-26T14:08:42.155Z,2.50
2019-05-26T14:11:11.730Z,4.10
2019-05-26T14:13:41.300Z,2.50
2019-05-26T14:16:10.816Z,2.77
2019-05-26T14:18:42.020Z,5.80
2019-05-26T14:21:11.612Z,2.23
2019-05-26T14:23:41.151Z,2.20
2019-05-26T14:26:10.677Z,3.87
2019-05-26T14:28:40.169Z,2.50
2019-05-26T14:31:09.666Z,1.80
2019-05-26T14:33:39.188Z,2.20
2019-05-26T14:36:08.692Z,2.80
2019-05-26T14:38:43.105Z,5.90
2019-05-26T14:41:09.491Z,1.67
2019-05-26T14:43:38.985Z,3.20
2019-05-26T14:46:08.661Z,1.70
2019-05-26T14:48:38.177Z,1.80
2019-05-26T14:51:07.700Z,2.47
2019-05-26T14:53:37.293Z,1.93
2019-05-26T14:56:06.816Z,2.30
2019-05-26T14:58:36.466Z,2.10
2019-05-26T15:01:06.069Z,3.30
2019-05-26T15:03:35.670Z,2.33
2019-05-26T15:06:06.314Z,1.93
2019-05-26T15:08:36.020Z,2.07
2019-05-26T15:11:05.705Z,2.70
2019-05-26T15:13:35.331Z,3.23
2019-05-26T15:16:09.722Z,2.00
2019-05-26T15:18:36.255Z,2.20
2019-05-26T15:21:05.756Z,1.93
2019-05-26T15:23:35.375Z,2.63
2019-05-26T15:26:05.608Z,3.03
2019-05-26T15:28:35.559Z,2.10
2019-05-26T15:31:05.135Z,2.00
2019-05-26T15:33:34.665Z,2.07
2019-05-26T15:36:04.227Z,2.43
2019-05-26T15:38:42.903Z,2.27
2019-05-26T15:41:06.543Z,2.37
2019-05-26T15:43:36.073Z,2.30
2019-05-26T15:46:05.717Z,2.53
2019-05-26T15:48:35.349Z,3.33
2019-05-26T15:51:05.287Z,3.63
2019-05-26T15:53:34.784Z,1.97
2019-05-26T15:56:04.447Z,2.23
2019-05-26T15:58:34.008Z,2.37
2019-05-26T16:01:03.493Z,2.13
2019-05-26T16:03:33.020Z,4.13
2019-05-26T16:06:02.516Z,2.60
2019-05-26T16:08:32.018Z,2.20
2019-05-26T16:11:01.549Z,2.90
2019-05-26T16:13:31.034Z,2.30
2019-05-26T16:16:00.537Z,2.30
2019-05-26T16:18:30.063Z,2.43
2019-05-26T16:21:03.335Z,2.13
2019-05-26T16:23:30.850Z,5.37
2019-05-26T16:26:00.545Z,2.13
2019-05-26T16:28:30.074Z,1.70
2019-05-26T16:30:59.577Z,2.63
2019-05-26T16:33:29.188Z,2.53
2019-05-26T16:35:58.774Z,2.13
2019-05-26T16:38:28.609Z,1.90
2019-05-26T16:40:58.314Z,2.00
2019-05-26T16:43:28.519Z,2.00
2019-05-26T16:45:58.242Z,2.87
2019-05-26T16:48:27.819Z,2.30
2019-05-26T16:50:57.458Z,2.93
2019-05-26T16:53:26.969Z,2.10
2019-05-26T16:55:56.474Z,2.50
2019-05-26T16:58:26.421Z,2.43
2019-05-26T17:00:56.422Z,2.17
2019-05-26T17:03:26.022Z,2.37
2019-05-26T17:06:07.494Z,2.10
2019-05-26T17:08:26.881Z,2.47
2019-05-26T17:10:56.406Z,2.30
2019-05-26T17:13:25.925Z,1.90
2019-05-26T17:15:55.521Z,2.17
2019-05-26T17:18:25.079Z,1.93
2019-05-26T17:20:54.600Z,2.67
2019-05-26T17:23:24.182Z,2.30
2019-05-26T17:25:53.675Z,2.67
2019-05-26T17:28:23.260Z,2.17
2019-05-26T17:30:52.746Z,5.37
2019-05-26T17:33:22.268Z,2.13
2019-05-26T17:35:51.763Z,4.90
2019-05-26T17:38:21.282Z,3.07
2019-05-26T17:40:50.916Z,2.40
2019-05-26T17:43:20.444Z,2.57
2019-05-26T17:45:49.974Z,3.03
2019-05-26T17:48:19.486Z,3.80
2019-05-26T17:50:49.093Z,2.83
2019-05-26T17:53:18.708Z,2.97
2019-05-26T17:55:48.216Z,2.40
2019-05-26T17:58:17.775Z,2.43
2019-05-26T18:00:47.297Z,2.10
2019-05-26T18:03:16.921Z,1.97
2019-05-26T18:05:46.508Z,2.47
2019-05-26T18:08:16.038Z,3.13
2019-05-26T18:10:45.628Z,3.73
2019-05-26T18:13:15.163Z,2.43
2019-05-26T18:15:44.790Z,2.40
2019-05-26T18:18:14.487Z,3.27
2019-05-26T18:20:44.044Z,2.57
2019-05-26T18:23:13.626Z,2.73
2019-05-26T18:25:43.194Z,3.13
2019-05-26T18:28:12.764Z,2.97
2019-05-26T18:30:42.355Z,3.27
2019-05-26T18:33:11.871Z,2.67
2019-05-26T18:35:41.451Z,2.87
2019-05-26T18:38:11.029Z,3.13
2019-05-26T18:40:41.399Z,3.77
2019-05-26T18:43:10.939Z,2.97
2019-05-26T18:45:40.529Z,3.20
2019-05-26T18:48:10.050Z,3.10
2019-05-26T18:50:39.660Z,4.07
2019-05-26T18:53:09.171Z,3.80
2019-05-26T18:55:38.797Z,4.30
2019-05-26T18:58:08.340Z,3.40
2019-05-26T19:00:37.928Z,4.40
2019-05-26T19:03:07.540Z,5.53
2019-05-26T19:05:38.503Z,3.50
2019-05-26T19:08:08.253Z,4.63
2019-05-26T19:10:37.761Z,5.00
2019-05-26T19:13:10.579Z,3.10
2019-05-26T19:15:38.583Z,4.00
2019-05-26T19:18:19.339Z,4.80
2019-05-26T19:20:39.399Z,6.07
2019-05-26T19:23:08.883Z,3.93
2019-05-26T19:25:38.551Z,3.83
2019-05-26T19:28:08.077Z,7.07
2019-05-26T19:30:37.668Z,4.60
2019-05-26T19:33:07.272Z,4.47
2019-05-26T19:35:36.992Z,4.40
2019-05-26T19:38:06.578Z,6.20
2019-05-26T19:40:36.113Z,4.27
2019-05-26T19:43:05.714Z,6.03
2019-05-26T19:45:35.236Z,4.97
2019-05-26T19:48:04.814Z,6.00
2019-05-26T19:50:34.378Z,10.07
2019-05-26T19:53:03.880Z,6.77
2019-05-26T19:55:33.477Z,5.10
2019-05-26T19:58:03.023Z,8.20
2019-05-26T20:00:32.596Z,6.43
2019-05-26T20:03:02.118Z,4.70
2019-05-26T20:05:31.959Z,4.70
2019-05-26T20:08:01.475Z,6.43
2019-05-26T20:10:31.031Z,5.37
2019-05-26T20:13:00.508Z,5.90
2019-05-26T20:15:29.904Z,4.63
2019-05-26T20:17:59.351Z,6.80
2019-05-26T20:20:28.723Z,6.57
2019-05-26T20:23:01.954Z,6.50
2019-05-26T20:25:31.477Z,5.47
2019-05-26T20:28:00.854Z,6.13
2019-05-26T20:30:30.231Z,5.53
2019-05-26T20:32:59.735Z,5.23
2019-05-26T20:35:29.091Z,5.93
2019-05-26T20:37:58.559Z,6.40
2019-05-26T20:40:27.953Z,4.60
2019-05-26T20:42:57.322Z,5.60
2019-05-26T20:45:26.749Z,6.93
2019-05-26T20:47:56.129Z,8.17
2019-05-26T20:50:29.623Z,4.90
2019-05-26T20:52:56.795Z,7.67
2019-05-26T20:55:26.177Z,7.90
2019-05-26T20:57:55.521Z,5.67
2019-05-26T21:00:25.021Z,4.93
2019-05-26T21:02:54.522Z,5.40
2019-05-26T21:05:24.019Z,7.30
2019-05-26T21:07:53.429Z,5.80
2019-05-26T21:10:22.787Z,6.60
2019-05-26T21:12:52.221Z,7.03
2019-05-26T21:15:21.730Z,5.97
2019-05-26T21:17:51.123Z,6.20
2019-05-26T21:20:21.132Z,6.13
2019-05-26T21:22:50.529Z,7.30
2019-05-26T21:25:19.884Z,6.73
2019-05-26T21:27:49.247Z,5.87
2019-05-26T21:30:19.667Z,7.37
2019-05-26T21:32:49.016Z,6.70
2019-05-26T21:35:18.435Z,5.00
2019-05-26T21:37:47.819Z,5.63
2019-05-26T21:40:17.344Z,6.07
2019-05-26T21:42:46.798Z,5.27
2019-05-26T21:45:17.142Z,5.47
2019-05-26T21:47:46.538Z,6.20
2019-05-26T21:50:17.348Z,5.43
2019-05-26T21:52:46.772Z,5.07
2019-05-26T21:55:16.438Z,5.73
2019-05-26T21:57:45.807Z,6.13
2019-05-26T22:00:18.805Z,6.20
2019-05-26T22:02:48.309Z,6.03
2019-05-26T22:05:17.870Z,6.03
2019-05-26T22:07:47.250Z,10.73
2019-05-26T22:10:16.895Z,7.27
2019-05-26T22:12:46.338Z,7.73
2019-05-26T22:15:15.884Z,7.57
2019-05-26T22:17:45.379Z,7.57
2019-05-26T22:20:14.877Z,6.00
2019-05-26T22:22:44.238Z,6.97
2019-05-26T22:25:13.674Z,5.30
2019-05-26T22:27:43.049Z,7.43
2019-05-26T22:30:12.685Z,5.90
2019-05-26T22:32:42.078Z,7.23
2019-05-26T22:35:11.715Z,6.97
2019-05-26T22:37:41.100Z,5.50
2019-05-26T22:40:10.733Z,4.83
2019-05-26T22:42:40.141Z,6.67
2019-05-26T22:45:09.857Z,5.57
2019-05-26T22:47:39.347Z,5.70
2019-05-26T22:50:09.284Z,5.53
2019-05-26T22:52:38.759Z,6.87
2019-05-26T22:55:09.334Z,5.30
2019-05-26T22:57:38.725Z,6.23
2019-05-26T23:00:08.876Z,5.90
2019-05-26T23:02:38.231Z,6.63
2019-05-26T23:05:07.898Z,5.43
2019-05-26T23:07:37.264Z,6.13
2019-05-26T23:10:07.653Z,7.37
2019-05-26T23:12:37.050Z,5.60
2019-05-26T23:15:06.675Z,7.00
2019-05-26T23:17:36.066Z,5.60
2019-05-26T23:20:06.400Z,5.27
2019-05-26T23:22:35.864Z,5.30
2019-05-26T23:25:05.798Z,7.33
2019-05-26T23:27:35.239Z,5.93
2019-05-26T23:30:16.073Z,5.50
2019-05-26T23:32:45.542Z,5.63
2019-05-26T23:35:15.227Z,5.63
2019-05-26T23:37:44.609Z,5.47
2019-05-26T23:40:14.035Z,5.80
2019-05-26T23:42:43.470Z,8.63
2019-05-26T23:45:13.006Z,6.20
2019-05-26T23:47:42.487Z,5.53
2019-05-26T23:50:12.094Z,5.07
2019-05-26T23:52:41.475Z,5.07
2019-05-26T23:55:11.178Z,9.27
2019-05-26T23:57:40.639Z,7.37
